Time;durP1;ratioP1;P1;durP2;ratioP2;P2;SDS_P1;SDS_P2;PMS_P1;PMS_P2;Temp;Humidity;BMP_temperature;BMP_pressure;BME280_temperature;BME280_humidity;BME280_pressure;Samples;Min_cycle;Max_cycle;Signal;HPM_P1;HPM_P2
2021/09/05 00:02:16;;;;;;;3.47;2.20;;;12.40;99.90;;;;;;5123361;28;20472;-88
2021/09/05 00:04:44;;;;;;;2.33;1.60;;;12.40;99.90;;;;;;5107199;28;20242;-86
2021/09/05 00:07:11;;;;;;;4.30;2.70;;;12.40;99.90;;;;;;5101171;28;20198;-88
2021/09/05 00:09:39;;;;;;;5.63;2.17;;;12.30;99.90;;;;;;5093778;28;20197;-88
2021/09/05 00:12:07;;;;;;;2.95;2.20;;;12.30;99.90;;;;;;5099253;28;20198;-87
2021/09/05 00:14:36;;;;;;;3.58;2.60;;;12.30;99.90;;;;;;5098515;28;20205;-86
2021/09/05 00:17:04;;;;;;;1.88;1.42;;;12.20;99.90;;;;;;5100095;28;20202;-87
2021/09/05 00:19:31;;;;;;;2.50;2.30;;;12.20;99.90;;;;;;5118412;28;20256;-86
2021/09/05 00:21:58;;;;;;;2.08;1.88;;;12.20;99.90;;;;;;5100188;28;20507;-88
2021/09/05 00:24:25;;;;;;;4.55;2.28;;;12.30;99.90;;;;;;5119467;28;20201;-90
2021/09/05 00:26:52;;;;;;;2.35;2.15;;;12.20;99.90;;;;;;5092316;28;20202;-89
2021/09/05 00:29:20;;;;;;;2.25;2.08;;;12.10;99.90;;;;;;5103593;28;20323;-88
2021/09/05 00:31:47;;;;;;;1.90;1.80;;;12.00;99.90;;;;;;5103696;28;20231;-90
2021/09/05 00:34:14;;;;;;;3.25;2.42;;;12.00;99.90;;;;;;5104787;28;20254;-91
2021/09/05 00:36:41;;;;;;;2.83;1.92;;;11.90;99.90;;;;;;5123450;28;20259;-89
2021/09/05 00:39:09;;;;;;;3.35;1.85;;;12.00;99.90;;;;;;5122723;28;20266;-85
2021/09/05 00:41:36;;;;;;;1.60;1.50;;;12.10;99.90;;;;;;5117870;28;20228;-87
2021/09/05 00:44:05;;;;;;;2.97;2.33;;;11.90;99.90;;;;;;5103034;28;20205;-86
2021/09/05 00:46:33;;;;;;;3.08;2.20;;;11.90;99.90;;;;;;5119279;28;20223;-88
2021/09/05 00:49:01;;;;;;;2.20;1.80;;;11.90;99.90;;;;;;5120588;28;20205;-90
2021/09/05 00:51:31;;;;;;;3.08;1.35;;;12.00;99.90;;;;;;5112104;28;20205;-86
2021/09/05 00:53:58;;;;;;;3.33;2.30;;;12.00;99.90;;;;;;5103416;28;20254;-85
2021/09/05 00:56:33;;;;;;;2.78;1.60;;;12.00;99.90;;;;;;5104557;28;20250;-85
2021/09/05 00:59:11;;;;;;;1.90;1.70;;;11.90;99.90;;;;;;5105473;28;20541;-85
2021/09/05 01:01:39;;;;;;;3.15;2.85;;;11.90;99.90;;;;;;5107134;28;20296;-86
2021/09/05 01:04:07;;;;;;;2.10;1.90;;;11.90;99.90;;;;;;5101884;28;20198;-85
2021/09/05 01:06:37;;;;;;;3.15;2.63;;;11.80;99.90;;;;;;5106296;28;20413;-86
2021/09/05 01:09:06;;;;;;;3.25;2.70;;;11.80;99.90;;;;;;5101407;28;20289;-85
2021/09/05 01:11:34;;;;;;;3.63;2.75;;;11.80;99.90;;;;;;5123422;28;20208;-87
2021/09/05 01:14:08;;;;;;;2.35;2.17;;;11.90;99.90;;;;;;5102160;28;20487;-88
2021/09/05 01:16:38;;;;;;;2.88;2.35;;;11.90;99.90;;;;;;5098369;28;20204;-87
2021/09/05 01:19:08;;;;;;;3.35;2.30;;;11.80;99.90;;;;;;5111946;28;20259;-86
2021/09/05 01:21:35;;;;;;;1.92;1.35;;;11.80;99.90;;;;;;5103434;28;20250;-85
2021/09/05 01:24:05;;;;;;;1.65;1.55;;;11.80;99.90;;;;;;5096515;28;20361;-82
2021/09/05 01:26:33;;;;;;;2.10;1.90;;;11.80;99.90;;;;;;5119063;28;20246;-85
2021/09/05 01:29:02;;;;;;;3.05;2.28;;;11.80;99.90;;;;;;5120336;28;20211;-89
2021/09/05 01:31:45;;;;;;;1.83;1.73;;;11.70;99.90;;;;;;5096695;28;20246;-85
2021/09/05 01:34:16;;;;;;;1.92;1.52;;;11.80;99.90;;;;;;5121183;28;20270;-86
2021/09/05 01:36:44;;;;;;;1.55;1.48;;;11.70;99.90;;;;;;5114961;28;20214;-83
2021/09/05 01:39:13;;;;;;;1.80;1.70;;;11.80;99.90;;;;;;5100628;28;20217;-86
2021/09/05 01:41:42;;;;;;;4.55;2.35;;;11.70;99.90;;;;;;5104792;28;20284;-82
2021/09/05 01:44:11;;;;;;;3.28;2.50;;;11.80;99.90;;;;;;5102147;28;20213;-91
2021/09/05 01:46:39;;;;;;;2.50;2.30;;;11.70;99.90;;;;;;5111262;28;20198;-87
2021/09/05 01:49:06;;;;;;;1.70;1.35;;;11.60;99.90;;;;;;5111522;28;20272;-86
2021/09/05 01:51:34;;;;;;;1.85;1.75;;;11.70;99.90;;;;;;5105628;28;20198;-82
2021/09/05 01:54:02;;;;;;;2.25;1.95;;;11.60;99.90;;;;;;5118498;28;20500;-88
2021/09/05 01:56:31;;;;;;;1.95;1.75;;;11.70;99.90;;;;;;5107450;28;20294;-84
2021/09/05 01:58:59;;;;;;;1.83;1.73;;;11.70;99.90;;;;;;5099819;28;20542;-90
2021/09/05 02:01:28;;;;;;;1.92;1.83;;;11.70;99.90;;;;;;5115229;28;20200;-85
2021/09/05 02:03:56;;;;;;;4.32;1.98;;;11.70;99.90;;;;;;5085267;28;20399;-83
2021/09/05 02:06:24;;;;;;;2.53;1.70;;;11.70;99.90;;;;;;5115980;28;20197;-87
2021/09/05 02:08:51;;;;;;;2.25;2.05;;;11.70;99.90;;;;;;5121504;28;20192;-87
2021/09/05 02:11:18;;;;;;;3.55;1.75;;;11.70;99.90;;;;;;5121189;28;20265;-88
2021/09/05 02:13:45;;;;;;;1.50;1.40;;;11.70;99.90;;;;;;5121079;28;20505;-85
2021/09/05 02:16:13;;;;;;;2.42;1.90;;;11.60;99.90;;;;;;5122776;28;20316;-84
2021/09/05 02:18:40;;;;;;;2.35;1.45;;;11.60;99.90;;;;;;5120129;28;20261;-86
2021/09/05 02:21:07;;;;;;;2.40;1.45;;;11.60;99.90;;;;;;5101110;28;20201;-83
2021/09/05 02:23:34;;;;;;;2.10;1.90;;;11.70;99.90;;;;;;5120530;28;20490;-85
2021/09/05 02:26:01;;;;;;;1.70;1.60;;;11.60;99.90;;;;;;5105050;28;20201;-85
2021/09/05 02:28:28;;;;;;;3.53;1.70;;;11.70;99.90;;;;;;5107845;28;20238;-86
2021/09/05 02:30:56;;;;;;;2.17;1.95;;;11.70;99.90;;;;;;5094321;28;20426;-84
2021/09/05 02:33:23;;;;;;;1.80;1.70;;;11.60;99.90;;;;;;5101163;28;20212;-89
2021/09/05 02:35:50;;;;;;;2.13;1.85;;;11.50;99.90;;;;;;5098543;28;20413;-84
2021/09/05 02:38:17;;;;;;;6.97;1.77;;;11.50;99.90;;;;;;5112631;28;20228;-89
2021/09/05 02:40:45;;;;;;;2.30;1.52;;;11.50;99.90;;;;;;5095298;28;20242;-87
2021/09/05 02:43:12;;;;;;;2.15;1.95;;;11.50;99.90;;;;;;5093692;28;20249;-85
2021/09/05 02:45:39;;;;;;;5.72;3.22;;;11.60;99.90;;;;;;5118545;28;20204;-86
2021/09/05 02:48:06;;;;;;;2.10;1.50;;;11.60;99.90;;;;;;5116003;28;20483;-91
2021/09/05 02:50:33;;;;;;;3.50;2.70;;;11.60;99.90;;;;;;5112404;28;20205;-85
2021/09/05 02:53:00;;;;;;;1.73;1.63;;;11.60;99.90;;;;;;5120330;28;20266;-86
2021/09/05 02:55:28;;;;;;;1.75;1.65;;;11.50;99.90;;;;;;5119924;28;20204;-86
2021/09/05 02:57:55;;;;;;;2.50;1.50;;;11.60;99.90;;;;;;5103500;28;20207;-87
2021/09/05 03:00:22;;;;;;;1.70;1.50;;;11.60;99.90;;;;;;5116828;28;20208;-88
2021/09/05 03:02:51;;;;;;;1.85;1.60;;;11.60;99.90;;;;;;5118034;28;20209;-88
2021/09/05 03:05:18;;;;;;;3.67;1.90;;;11.60;99.90;;;;;;5111601;28;20265;-85
2021/09/05 03:07:45;;;;;;;2.00;1.75;;;11.60;99.90;;;;;;5102923;28;20317;-88
2021/09/05 03:10:12;;;;;;;4.32;2.65;;;11.60;99.90;;;;;;5115785;28;20196;-88
2021/09/05 03:12:40;;;;;;;4.32;2.42;;;11.50;99.90;;;;;;5106449;28;20246;-85
2021/09/05 03:15:08;;;;;;;1.65;1.55;;;11.60;99.90;;;;;;5117914;28;20205;-88
2021/09/05 03:17:36;;;;;;;1.85;1.75;;;11.60;99.90;;;;;;5116594;28;20225;-85
2021/09/05 03:20:03;;;;;;;3.13;2.17;;;11.60;99.90;;;;;;5121691;28;20262;-85
2021/09/05 03:22:30;;;;;;;2.13;2.03;;;11.60;99.90;;;;;;5122080;28;20201;-86
2021/09/05 03:24:58;;;;;;;3.08;1.75;;;11.50;99.90;;;;;;5101921;28;20367;-87
2021/09/05 03:27:25;;;;;;;1.55;1.45;;;11.50;99.90;;;;;;5098628;28;20197;-90
2021/09/05 03:29:52;;;;;;;3.63;2.08;;;11.60;99.90;;;;;;5104529;28;20204;-90
2021/09/05 03:32:19;;;;;;;1.77;1.60;;;11.50;99.90;;;;;;5099399;28;20204;-87
2021/09/05 03:34:46;;;;;;;1.80;1.33;;;11.50;99.90;;;;;;5115588;28;20442;-86
2021/09/05 03:37:13;;;;;;;2.25;2.05;;;11.50;99.90;;;;;;5123766;28;20212;-87
2021/09/05 03:39:40;;;;;;;3.00;1.50;;;11.40;99.90;;;;;;5106072;28;20433;-86
2021/09/05 03:42:07;;;;;;;1.73;1.63;;;11.30;99.90;;;;;;5124235;28;20254;-86
2021/09/05 03:44:34;;;;;;;2.13;1.92;;;11.20;99.90;;;;;;5119001;28;20499;-90
2021/09/05 03:47:02;;;;;;;1.55;1.45;;;11.20;99.90;;;;;;5097065;28;20418;-89
2021/09/05 03:49:30;;;;;;;1.95;1.60;;;11.30;99.90;;;;;;5113080;28;20220;-86
2021/09/05 03:51:58;;;;;;;1.83;1.60;;;11.30;99.90;;;;;;5120929;28;20351;-86
2021/09/05 03:54:25;;;;;;;3.15;1.60;;;11.20;99.90;;;;;;5105222;28;20209;-86
2021/09/05 03:56:52;;;;;;;3.50;1.80;;;11.30;99.90;;;;;;5118098;28;20222;-86
2021/09/05 03:59:19;;;;;;;2.10;1.90;;;11.30;99.90;;;;;;5099601;28;20260;-88
2021/09/05 04:01:47;;;;;;;1.67;1.20;;;11.30;99.90;;;;;;5123838;28;20205;-87
2021/09/05 04:04:14;;;;;;;2.42;1.85;;;11.30;99.90;;;;;;5103736;28;20269;-86
2021/09/05 04:06:48;;;;;;;2.10;1.90;;;11.20;99.90;;;;;;5094885;28;20204;-87
2021/09/05 04:10:08;;;;;;;4.72;2.40;;;11.20;99.90;;;;;;5099360;28;20191;-87
2021/09/05 04:12:05;;;;;;;2.03;1.70;;;11.20;99.90;;;;;;5112562;28;20274;-86
2021/09/05 04:14:32;;;;;;;2.30;2.10;;;11.20;99.90;;;;;;5115042;28;20257;-87
2021/09/05 04:17:00;;;;;;;2.35;2.15;;;11.20;99.90;;;;;;5115628;28;20291;-88
2021/09/05 04:19:27;;;;;;;1.95;1.85;;;11.00;99.90;;;;;;5102411;28;20241;-86
2021/09/05 04:21:54;;;;;;;2.88;1.80;;;11.10;99.90;;;;;;5122269;28;20201;-86
2021/09/05 04:24:22;;;;;;;2.35;1.70;;;11.10;99.90;;;;;;5095358;28;20241;-84
2021/09/05 04:26:49;;;;;;;3.03;2.13;;;11.10;99.90;;;;;;5099287;28;20204;-84
2021/09/05 04:29:17;;;;;;;1.80;1.70;;;11.10;99.90;;;;;;5114643;28;20205;-86
2021/09/05 04:31:44;;;;;;;8.07;2.20;;;11.10;99.90;;;;;;5118602;28;20200;-86
2021/09/05 04:34:11;;;;;;;3.67;2.95;;;11.20;99.90;;;;;;5118941;28;20215;-90
2021/09/05 04:36:38;;;;;;;2.10;1.95;;;11.20;99.90;;;;;;5124072;28;20487;-84
2021/09/05 04:39:05;;;;;;;1.52;1.42;;;11.10;99.90;;;;;;5120355;28;20235;-85
2021/09/05 04:41:33;;;;;;;1.70;1.40;;;11.20;99.90;;;;;;5123843;28;20233;-85
2021/09/05 04:44:00;;;;;;;2.85;1.95;;;11.30;99.90;;;;;;5103015;28;20201;-88
2021/09/05 04:46:27;;;;;;;2.35;1.65;;;11.30;99.90;;;;;;5110010;28;20194;-87
2021/09/05 04:48:54;;;;;;;3.05;1.90;;;11.30;99.90;;;;;;5124099;28;20238;-85
2021/09/05 04:51:22;;;;;;;1.65;1.50;;;11.30;99.90;;;;;;5118002;28;20212;-85
2021/09/05 04:53:50;;;;;;;1.50;1.40;;;11.40;99.90;;;;;;5100531;28;20228;-87
2021/09/05 04:56:17;;;;;;;1.95;1.83;;;11.50;99.90;;;;;;5122289;28;20215;-85
2021/09/05 04:58:45;;;;;;;1.60;1.50;;;11.50;99.90;;;;;;5099550;28;20259;-85
2021/09/05 05:01:13;;;;;;;2.00;1.90;;;11.70;99.90;;;;;;5116562;27;20508;-85
2021/09/05 05:03:41;;;;;;;3.10;2.88;;;11.80;99.90;;;;;;5094612;28;20205;-88
2021/09/05 05:06:28;;;;;;;3.33;2.10;;;11.90;99.90;;;;;;5100201;28;20198;-88
2021/09/05 05:08:56;;;;;;;2.70;1.73;;;12.00;99.90;;;;;;5103688;28;20200;-85
2021/09/05 05:11:23;;;;;;;2.05;1.80;;;12.10;99.90;;;;;;5104016;28;20216;-85
2021/09/05 05:13:52;;;;;;;2.78;2.40;;;12.00;99.90;;;;;;5119045;28;20670;-85
2021/09/05 05:16:22;;;;;;;2.30;1.75;;;12.10;99.90;;;;;;5104007;28;20208;-87
2021/09/05 05:18:50;;;;;;;3.80;2.25;;;12.40;99.90;;;;;;5118761;28;20304;-87
2021/09/05 05:21:18;;;;;;;2.28;2.00;;;12.50;99.90;;;;;;5103231;28;20484;-87
2021/09/05 05:23:45;;;;;;;1.83;1.73;;;12.70;99.90;;;;;;5112915;28;20197;-83
2021/09/05 05:26:12;;;;;;;1.75;1.60;;;12.60;99.90;;;;;;5112783;28;20373;-86
2021/09/05 05:28:39;;;;;;;2.88;1.92;;;12.50;99.90;;;;;;5116000;28;20208;-86
2021/09/05 05:31:07;;;;;;;1.88;1.77;;;12.60;99.90;;;;;;5109727;27;20200;-82
2021/09/05 05:33:34;;;;;;;2.03;1.90;;;12.80;99.90;;;;;;5119168;28;20382;-86
2021/09/05 05:36:02;;;;;;;2.92;2.75;;;12.80;99.90;;;;;;5116343;28;20498;-85
2021/09/05 05:38:29;;;;;;;3.35;2.00;;;13.00;99.90;;;;;;5094021;28;20272;-87
2021/09/05 05:40:56;;;;;;;2.45;2.25;;;13.10;99.90;;;;;;5112888;28;20282;-85
2021/09/05 05:43:24;;;;;;;2.58;2.38;;;13.20;99.90;;;;;;5089043;28;20273;-84
2021/09/05 05:45:51;;;;;;;1.75;1.65;;;13.20;99.90;;;;;;5111789;28;20202;-85
2021/09/05 05:48:19;;;;;;;1.95;1.85;;;13.20;99.90;;;;;;5107945;28;20555;-85
2021/09/05 05:50:47;;;;;;;1.92;1.80;;;13.40;99.90;;;;;;5118214;28;20204;-88
2021/09/05 05:53:15;;;;;;;4.60;1.60;;;13.30;99.90;;;;;;5114430;28;20269;-86
2021/09/05 05:55:44;;;;;;;2.55;2.35;;;13.40;99.90;;;;;;5117832;28;20201;-88
2021/09/05 05:58:11;;;;;;;1.85;1.75;;;13.50;99.90;;;;;;5108417;28;20215;-87
2021/09/05 06:00:39;;;;;;;2.20;1.98;;;13.60;99.90;;;;;;5108954;28;20411;-88
2021/09/05 06:03:07;;;;;;;2.17;2.05;;;14.00;99.90;;;;;;5083445;28;20194;-86
2021/09/05 06:05:34;;;;;;;3.45;3.10;;;14.50;99.90;;;;;;5109010;28;20411;-87
2021/09/05 06:08:03;;;;;;;2.60;2.40;;;15.00;99.90;;;;;;5088550;28;20241;-88
2021/09/05 06:10:32;;;;;;;2.93;2.07;;;15.30;99.90;;;;;;5102010;28;20198;-87
2021/09/05 06:12:59;;;;;;;1.93;1.80;;;15.40;99.90;;;;;;5109218;28;20817;-86
2021/09/05 06:15:27;;;;;;;3.43;2.80;;;15.70;99.90;;;;;;5095962;28;20402;-86
2021/09/05 06:17:54;;;;;;;3.33;3.10;;;15.90;99.90;;;;;;5094017;28;20750;-87
2021/09/05 06:20:21;;;;;;;4.43;2.93;;;16.20;99.90;;;;;;5101571;28;20473;-87
2021/09/05 06:22:48;;;;;;;2.10;2.00;;;16.20;99.90;;;;;;5111582;28;20441;-89
2021/09/05 06:25:17;;;;;;;2.43;2.33;;;16.50;99.90;;;;;;5110069;28;20496;-86
2021/09/05 06:27:44;;;;;;;3.27;2.90;;;17.20;99.90;;;;;;5092012;28;20417;-88
2021/09/05 06:30:12;;;;;;;2.93;2.63;;;18.10;99.90;;;;;;5093958;28;20407;-87
2021/09/05 06:32:39;;;;;;;3.60;3.40;;;18.90;99.90;;;;;;5116736;28;20491;-88
2021/09/05 06:35:07;;;;;;;3.07;2.87;;;19.90;99.90;;;;;;5094086;28;20472;-88
2021/09/05 06:37:36;;;;;;;3.27;3.07;;;20.60;99.90;;;;;;5091019;28;20425;-88
2021/09/05 06:40:04;;;;;;;3.53;3.33;;;20.70;99.90;;;;;;5109215;28;20897;-89
2021/09/05 06:42:34;;;;;;;4.97;4.57;;;20.40;99.90;;;;;;5103777;28;20441;-87
2021/09/05 06:45:01;;;;;;;4.20;3.90;;;20.20;99.90;;;;;;5111209;28;20417;-88
2021/09/05 06:47:29;;;;;;;4.07;3.87;;;20.30;99.90;;;;;;5111963;28;20544;-90
2021/09/05 06:49:56;;;;;;;3.07;2.97;;;19.70;99.90;;;;;;5092009;28;20431;-84
2021/09/05 06:52:24;;;;;;;3.47;3.27;;;19.60;99.90;;;;;;5106989;28;20440;-87
2021/09/05 06:54:51;;;;;;;3.30;3.10;;;19.70;99.90;;;;;;5090506;28;20589;-86
2021/09/05 06:57:20;;;;;;;3.40;3.13;;;19.60;99.90;;;;;;5118113;28;20456;-86
2021/09/05 06:59:47;;;;;;;3.37;3.20;;;19.90;99.90;;;;;;5108791;28;20523;-89
2021/09/05 07:02:17;;;;;;;3.27;3.17;;;20.80;99.90;;;;;;5105383;28;20445;-88
2021/09/05 07:04:47;;;;;;;4.07;3.77;;;21.80;99.90;;;;;;5096246;28;20485;-86
2021/09/05 07:07:30;;;;;;;4.03;3.73;;;22.50;99.00;;;;;;5109643;28;20494;-86
2021/09/05 07:09:58;;;;;;;5.10;4.80;;;23.70;96.70;;;;;;5098521;28;20488;-89
2021/09/05 07:12:25;;;;;;;4.20;4.00;;;24.40;95.30;;;;;;5118576;28;20466;-87
2021/09/05 07:14:52;;;;;;;5.37;4.97;;;24.70;94.10;;;;;;5099179;28;20433;-90
2021/09/05 07:17:20;;;;;;;4.37;4.17;;;25.30;93.20;;;;;;5090410;28;20542;-86
2021/09/05 07:19:48;;;;;;;5.10;4.80;;;25.50;91.50;;;;;;5091030;28;20480;-89
2021/09/05 07:22:15;;;;;;;4.53;4.33;;;24.90;92.00;;;;;;5095852;28;20439;-89
2021/09/05 07:24:42;;;;;;;4.93;4.63;;;25.50;91.00;;;;;;5120769;27;20671;-87
2021/09/05 07:27:10;;;;;;;5.03;4.57;;;25.50;89.90;;;;;;5104458;28;20454;-87
2021/09/05 07:29:37;;;;;;;4.73;4.43;;;25.00;90.40;;;;;;5101480;28;20451;-90
2021/09/05 07:32:05;;;;;;;4.60;4.40;;;25.30;89.80;;;;;;5113771;28;20455;-84
2021/09/05 07:34:32;;;;;;;4.70;4.50;;;26.20;87.80;;;;;;5092548;28;20757;-84
2021/09/05 07:36:59;;;;;;;4.90;4.70;;;27.10;85.10;;;;;;5115725;28;20451;-87
2021/09/05 07:39:27;;;;;;;5.50;5.20;;;26.50;85.40;;;;;;5116633;28;20469;-88
2021/09/05 07:41:54;;;;;;;5.17;4.87;;;25.80;85.90;;;;;;5111700;28;20439;-92
2021/09/05 07:44:21;;;;;;;5.37;4.97;;;26.40;86.30;;;;;;5117622;28;20760;-87
2021/09/05 07:46:49;;;;;;;5.33;5.03;;;27.10;83.20;;;;;;5111554;28;20628;-89
2021/09/05 07:49:16;;;;;;;5.10;4.70;;;26.00;85.00;;;;;;5116733;28;20574;-85
2021/09/05 07:51:43;;;;;;;6.00;5.70;;;26.10;86.70;;;;;;5095417;28;20422;-90
2021/09/05 07:54:17;;;;;;;5.47;5.17;;;28.60;81.20;;;;;;5113116;28;20520;-89
2021/09/05 07:56:45;;;;;;;6.40;6.10;;;29.60;77.20;;;;;;5099942;28;20767;-92
2021/09/05 07:59:12;;;;;;;6.17;5.87;;;29.30;74.90;;;;;;5094266;28;20447;-92
2021/09/05 08:01:40;;;;;;;5.93;5.57;;;28.20;76.70;;;;;;5100537;28;20428;-90
2021/09/05 08:04:08;;;;;;;6.17;5.77;;;29.00;75.80;;;;;;5118185;28;20442;-93
2021/09/05 08:06:35;;;;;;;7.40;6.90;;;29.60;73.10;;;;;;5112580;28;20450;-91
2021/09/05 08:09:03;;;;;;;6.37;6.10;;;29.90;71.10;;;;;;5099542;28;20438;-88
2021/09/05 08:11:30;;;;;;;7.10;6.60;;;29.40;71.10;;;;;;5105020;28;20739;-91
2021/09/05 08:13:57;;;;;;;5.87;5.67;;;27.90;75.30;;;;;;5118878;28;20427;-92
2021/09/05 08:16:24;;;;;;;6.10;5.70;;;28.00;74.40;;;;;;5099630;28;20434;-88
2021/09/05 08:18:51;;;;;;;6.47;6.17;;;30.10;70.90;;;;;;5108277;28;20458;-88
2021/09/05 08:21:19;;;;;;;6.30;5.90;;;30.40;68.00;;;;;;5110522;28;20520;-88
2021/09/05 08:23:46;;;;;;;8.03;7.53;;;30.40;67.60;;;;;;5110954;28;20447;-92
2021/09/05 08:26:14;;;;;;;6.10;5.70;;;29.90;67.00;;;;;;5095334;28;20442;-90
2021/09/05 08:28:45;;;;;;;5.70;5.50;;;28.50;69.60;;;;;;5122162;28;20457;-90
2021/09/05 08:31:19;;;;;;;5.73;5.50;;;26.00;74.30;;;;;;5105381;28;20438;-89
2021/09/05 08:33:50;;;;;;;6.10;5.70;;;27.20;74.40;;;;;;5094408;28;20745;-91
2021/09/05 08:36:18;;;;;;;5.97;5.67;;;26.70;74.40;;;;;;5099644;28;20556;-90
2021/09/05 08:38:45;;;;;;;5.20;4.90;;;27.80;71.60;;;;;;5094863;28;20432;-87
2021/09/05 08:41:14;;;;;;;5.17;4.97;;;28.00;70.70;;;;;;5110753;28;20514;-89
2021/09/05 08:43:45;;;;;;;5.67;5.37;;;27.90;71.00;;;;;;5091518;28;20647;-90
2021/09/05 08:46:13;;;;;;;4.93;4.73;;;26.90;71.60;;;;;;5106064;28;20519;-93
2021/09/05 08:48:42;;;;;;;5.53;5.23;;;28.00;71.00;;;;;;5114168;28;20460;-91
2021/09/05 08:51:15;;;;;;;5.93;5.60;;;29.30;69.40;;;;;;5094007;28;20518;-87
2021/09/05 08:53:44;;;;;;;6.30;6.00;;;28.70;66.90;;;;;;5093426;28;20446;-88
2021/09/05 08:56:12;;;;;;;6.17;5.87;;;27.70;70.80;;;;;;5123349;28;20758;-86
2021/09/05 08:58:39;;;;;;;5.97;5.67;;;27.90;70.80;;;;;;5108867;28;20808;-90
2021/09/05 09:01:20;;;;;;;6.30;5.90;;;28.00;69.10;;;;;;5114979;28;20512;-91
2021/09/05 09:03:48;;;;;;;5.73;5.53;;;26.80;71.30;;;;;;5096922;28;20515;-87
2021/09/05 09:06:21;;;;;;;6.60;6.27;;;27.00;71.20;;;;;;5104826;28;20434;-88
2021/09/05 09:09:03;;;;;;;5.30;5.10;;;26.60;70.70;;;;;;5102996;28;20431;-86
2021/09/05 09:11:49;;;;;;;5.93;5.63;;;27.30;71.80;;;;;;5108398;27;20431;-86
2021/09/05 09:14:16;;;;;;;5.10;4.90;;;27.40;70.00;;;;;;5110435;28;20407;-88
2021/09/05 09:16:44;;;;;;;5.23;5.03;;;27.00;70.80;;;;;;5117382;28;20439;-89
2021/09/05 09:19:25;;;;;;;5.30;5.10;;;26.90;68.60;;;;;;5105243;28;20446;-87
2021/09/05 09:21:53;;;;;;;4.90;4.70;;;25.00;72.30;;;;;;5120998;28;20481;-88
2021/09/05 09:24:22;;;;;;;4.50;4.30;;;23.20;77.10;;;;;;5092826;28;20446;-87
2021/09/05 09:27:05;;;;;;;4.37;4.17;;;22.00;81.40;;;;;;5121907;27;20435;-88
2021/09/05 09:29:34;;;;;;;4.73;4.53;;;21.20;83.90;;;;;;5109770;28;20456;-88
2021/09/05 09:32:05;;;;;;;4.30;4.10;;;21.30;85.30;;;;;;5120251;28;20437;-88
2021/09/05 09:34:48;;;;;;;3.87;3.70;;;21.40;82.80;;;;;;5105503;28;20747;-88
2021/09/05 09:37:18;;;;;;;3.70;3.60;;;21.50;82.60;;;;;;5106372;28;20411;-86
2021/09/05 09:39:49;;;;;;;4.50;4.20;;;21.30;82.70;;;;;;5107127;28;20445;-89
2021/09/05 09:42:39;;;;;;;3.50;3.40;;;21.20;83.40;;;;;;5115336;28;20445;-89
2021/09/05 09:45:13;;;;;;;4.10;3.90;;;21.00;85.20;;;;;;5099071;28;20419;-84
2021/09/05 09:47:49;;;;;;;3.83;3.63;;;20.80;84.90;;;;;;5105238;28;20448;-89
2021/09/05 09:50:20;;;;;;;3.87;3.67;;;20.40;85.70;;;;;;5123735;28;20485;-87
2021/09/05 09:52:48;;;;;;;4.10;3.90;;;20.10;84.20;;;;;;5106068;28;20447;-87
2021/09/05 09:55:18;;;;;;;3.90;3.77;;;20.00;84.70;;;;;;5120576;28;20397;-88
2021/09/05 09:57:45;;;;;;;3.77;3.67;;;20.00;85.80;;;;;;5123066;28;20433;-89
2021/09/05 10:00:15;;;;;;;4.33;4.13;;;20.20;86.40;;;;;;5111994;28;20495;-88
2021/09/05 10:02:44;;;;;;;3.77;3.67;;;20.30;84.40;;;;;;5096369;28;20409;-89
2021/09/05 10:05:13;;;;;;;3.53;3.43;;;20.10;84.10;;;;;;5093408;28;20426;-87
2021/09/05 10:07:42;;;;;;;3.63;3.43;;;20.10;85.40;;;;;;5124831;28;20437;-86
2021/09/05 10:10:13;;;;;;;3.40;3.30;;;20.00;84.90;;;;;;5104935;28;20532;-86
2021/09/05 10:12:41;;;;;;;3.20;3.10;;;20.00;85.20;;;;;;5113069;28;20414;-88
2021/09/05 10:15:10;;;;;;;3.93;3.63;;;20.20;86.50;;;;;;5097945;28;20527;-90
2021/09/05 10:17:38;;;;;;;2.90;2.80;;;20.40;86.40;;;;;;5121198;28;20440;-89
2021/09/05 10:20:07;;;;;;;3.47;3.37;;;20.60;85.10;;;;;;5102994;28;20468;-86
2021/09/05 10:22:34;;;;;;;3.30;3.20;;;20.70;84.80;;;;;;5126514;28;20735;-88
2021/09/05 10:25:03;;;;;;;3.37;3.27;;;20.40;84.10;;;;;;5127132;28;20409;-91
2021/09/05 10:27:49;;;;;;;3.43;3.33;;;20.50;86.10;;;;;;5103677;28;20480;-86
2021/09/05 10:30:22;;;;;;;3.60;3.30;;;20.50;85.00;;;;;;5115184;28;20885;-89
2021/09/05 10:32:59;;;;;;;3.40;3.20;;;20.60;85.40;;;;;;5118370;28;20443;-88
2021/09/05 10:35:26;;;;;;;3.47;3.37;;;20.70;83.90;;;;;;5113084;28;20665;-85
2021/09/05 10:38:09;;;;;;;3.13;2.80;;;20.50;83.90;;;;;;5124105;28;20437;-86
2021/09/05 10:40:46;;;;;;;3.17;3.07;;;20.40;83.10;;;;;;5118193;28;20657;-87
2021/09/05 10:43:14;;;;;;;3.10;3.00;;;20.30;85.00;;;;;;5109835;28;20435;-87
2021/09/05 10:45:47;;;;;;;3.60;3.40;;;20.30;84.50;;;;;;5097198;28;20442;-88
2021/09/05 10:48:35;;;;;;;3.80;3.63;;;20.30;85.80;;;;;;5125965;28;20426;-87
2021/09/05 10:51:13;;;;;;;3.00;2.90;;;20.40;86.50;;;;;;5126715;28;20665;-87
2021/09/05 10:53:56;;;;;;;3.50;3.40;;;20.60;84.10;;;;;;5113950;28;20443;-89
2021/09/05 10:56:28;;;;;;;3.83;3.67;;;20.60;85.30;;;;;;5102380;28;20507;-86
2021/09/05 10:58:58;;;;;;;4.37;4.07;;;20.60;86.60;;;;;;5115598;28;20421;-87
2021/09/05 11:01:29;;;;;;;3.80;3.57;;;20.60;84.90;;;;;;5104219;28;20699;-88
2021/09/05 11:04:12;;;;;;;3.80;3.70;;;20.60;84.60;;;;;;5101512;28;20438;-88
2021/09/05 11:07:01;;;;;;;3.33;3.23;;;20.50;86.20;;;;;;5126168;28;20483;-86
2021/09/05 11:09:30;;;;;;;3.87;3.57;;;20.60;85.90;;;;;;5112732;28;20422;-88
2021/09/05 11:12:23;;;;;;;3.40;3.20;;;20.80;86.70;;;;;;5104456;28;20506;-86
2021/09/05 11:14:51;;;;;;;3.57;3.33;;;20.70;86.50;;;;;;5121641;28;20439;-85
2021/09/05 11:17:32;;;;;;;3.13;3.03;;;20.50;85.60;;;;;;5099736;28;20413;-88
2021/09/05 11:20:12;;;;;;;3.50;3.30;;;20.50;86.60;;;;;;5109085;28;20414;-88
2021/09/05 11:22:45;;;;;;;3.47;3.37;;;20.70;86.70;;;;;;5102232;28;20761;-86
2021/09/05 11:25:26;;;;;;;4.27;4.07;;;20.80;86.20;;;;;;5113778;28;20437;-86
2021/09/05 11:28:00;;;;;;;3.40;3.30;;;21.00;87.40;;;;;;5108481;28;20429;-88
2021/09/05 11:30:35;;;;;;;4.30;3.77;;;21.00;86.10;;;;;;5113785;28;20478;-86
2021/09/05 11:33:08;;;;;;;3.90;3.70;;;21.00;87.70;;;;;;5116049;28;20724;-85
2021/09/05 11:35:43;;;;;;;3.50;3.40;;;21.00;86.30;;;;;;5118665;27;20721;-86
2021/09/05 11:38:12;;;;;;;3.77;3.60;;;21.20;89.60;;;;;;5107907;28;20424;-90
2021/09/05 11:40:48;;;;;;;3.50;3.30;;;21.30;86.50;;;;;;5108510;28;20552;-87
2021/09/05 11:43:37;;;;;;;4.03;3.83;;;21.20;85.00;;;;;;5126681;28;20495;-89
2021/09/05 11:46:15;;;;;;;3.77;3.57;;;21.10;84.20;;;;;;5125278;28;20652;-86
2021/09/05 11:48:56;;;;;;;3.70;3.60;;;21.10;85.90;;;;;;5120314;28;20410;-86
2021/09/05 11:51:24;;;;;;;3.70;3.50;;;21.00;85.40;;;;;;5093381;28;20742;-89
2021/09/05 11:53:57;;;;;;;3.33;3.17;;;20.70;85.30;;;;;;5114451;28;20632;-88
2021/09/05 11:56:29;;;;;;;3.10;3.00;;;20.70;86.70;;;;;;5125352;28;20496;-88
2021/09/05 11:59:10;;;;;;;3.40;3.20;;;20.80;85.30;;;;;;5100116;28;20661;-87
2021/09/05 12:01:39;;;;;;;3.30;3.20;;;21.00;86.00;;;;;;5116000;28;20439;-87
2021/09/05 12:04:08;;;;;;;3.53;3.40;;;20.90;86.00;;;;;;5118415;28;20436;-88
2021/09/05 12:06:41;;;;;;;3.77;3.57;;;21.00;86.40;;;;;;5106389;28;20428;-84
2021/09/05 12:09:09;;;;;;;3.20;3.07;;;21.10;86.50;;;;;;5126015;28;20447;-88
2021/09/05 12:12:00;;;;;;;3.40;3.30;;;21.10;84.80;;;;;;5125136;28;20439;-89
2021/09/05 12:14:32;;;;;;;3.20;3.10;;;21.00;86.00;;;;;;5112160;28;20404;-89
2021/09/05 12:17:16;;;;;;;4.00;3.80;;;21.00;87.50;;;;;;5111833;28;20935;-87
2021/09/05 12:20:07;;;;;;;3.70;3.50;;;21.20;86.70;;;;;;5088197;28;20429;-89
2021/09/05 12:22:50;;;;;;;3.33;3.23;;;21.10;86.10;;;;;;5098510;28;20506;-87
2021/09/05 12:25:20;;;;;;;3.43;3.33;;;21.00;85.90;;;;;;5104635;28;20473;-88
2021/09/05 12:28:02;;;;;;;3.73;3.50;;;20.90;87.10;;;;;;5117544;28;20477;-88
2021/09/05 12:30:37;;;;;;;3.43;3.33;;;20.80;86.30;;;;;;5093590;28;20461;-87
2021/09/05 12:33:06;;;;;;;4.00;3.70;;;20.60;85.50;;;;;;5125175;27;20663;-89
2021/09/05 12:35:35;;;;;;;3.60;3.50;;;20.60;86.10;;;;;;5108520;28;20591;-89
2021/09/05 12:38:11;;;;;;;5.47;3.57;;;20.70;85.50;;;;;;5119836;28;20447;-89
2021/09/05 12:40:41;;;;;;;3.97;3.80;;;20.80;86.70;;;;;;5120240;28;20466;-88
2021/09/05 12:43:09;;;;;;;3.80;3.70;;;20.90;85.80;;;;;;5126098;28;20434;-86
2021/09/05 12:45:38;;;;;;;4.20;3.80;;;20.80;86.50;;;;;;5126431;28;20406;-88
2021/09/05 12:48:22;;;;;;;3.80;3.60;;;20.90;84.40;;;;;;5118685;28;20498;-89
2021/09/05 12:51:09;;;;;;;3.37;3.20;;;20.70;85.40;;;;;;5113831;28;20432;-88
2021/09/05 12:53:37;;;;;;;3.50;3.30;;;20.80;86.20;;;;;;5119183;28;20417;-86
2021/09/05 12:56:04;;;;;;;3.43;3.33;;;20.90;84.70;;;;;;5107606;28;20438;-88
2021/09/05 12:58:31;;;;;;;3.50;3.40;;;20.90;84.20;;;;;;5094227;28;20758;-85
2021/09/05 13:00:58;;;;;;;3.83;3.63;;;20.70;85.20;;;;;;5133118;27;20470;-85
2021/09/05 13:03:26;;;;;;;3.60;3.50;;;20.60;86.50;;;;;;5124975;28;20443;-90